sensor_id;sensor_type;location;lat;lon;timestamp;P1;durP1;ratioP1;P2;durP2;ratioP2
6475;SDS011;3271;51.910;5.840;2022-10-15T00:01:39;13.70;;;10.82;;
6475;SDS011;3271;51.910;5.840;2022-10-15T00:04:05;18.38;;;12.43;;
6475;SDS011;3271;51.910;5.840;2022-10-15T00:06:31;12.75;;;11.45;;
6475;SDS011;3271;51.910;5.840;2022-10-15T00:08:57;11.52;;;10.38;;
6475;SDS011;3271;51.910;5.840;2022-10-15T00:11:24;13.18;;;11.18;;
6475;SDS011;3271;51.910;5.840;2022-10-15T00:13:52;12.73;;;11.05;;
6475;SDS011;3271;51.910;5.840;2022-10-15T00:16:18;12.38;;;10.95;;
6475;SDS011;3271;51.910;5.840;2022-10-15T00:18:45;11.57;;;10.07;;
6475;SDS011;3271;51.910;5.840;2022-10-15T00:21:11;11.98;;;10.70;;
6475;SDS011;3271;51.910;5.840;2022-10-15T00:23:38;14.32;;;11.45;;
6475;SDS011;3271;51.910;5.840;2022-10-15T00:26:06;13.07;;;11.35;;
6475;SDS011;3271;51.910;5.840;2022-10-15T00:28:32;13.15;;;11.82;;
6475;SDS011;3271;51.910;5.840;2022-10-15T00:31:03;12.50;;;11.20;;
6475;SDS011;3271;51.910;5.840;2022-10-15T00:33:29;12.85;;;11.15;;
6475;SDS011;3271;51.910;5.840;2022-10-15T00:35:59;12.77;;;11.27;;
6475;SDS011;3271;51.910;5.840;2022-10-15T00:38:25;12.43;;;11.15;;
6475;SDS011;3271;51.910;5.840;2022-10-15T00:40:51;13.93;;;11.48;;
6475;SDS011;3271;51.910;5.840;2022-10-15T00:43:33;11.90;;;10.70;;
6475;SDS011;3271;51.910;5.840;2022-10-15T00:45:59;12.68;;;10.23;;
6475;SDS011;3271;51.910;5.840;2022-10-15T00:48:25;12.13;;;10.82;;
6475;SDS011;3271;51.910;5.840;2022-10-15T00:50:51;11.98;;;10.75;;
6475;SDS011;3271;51.910;5.840;2022-10-15T00:53:19;12.57;;;10.65;;
6475;SDS011;3271;51.910;5.840;2022-10-15T00:55:45;12.38;;;11.07;;
6475;SDS011;3271;51.910;5.840;2022-10-15T00:58:14;13.73;;;11.15;;
6475;SDS011;3271;51.910;5.840;2022-10-15T01:00:41;14.02;;;11.02;;
6475;SDS011;3271;51.910;5.840;2022-10-15T01:03:07;14.65;;;11.77;;
6475;SDS011;3271;51.910;5.840;2022-10-15T01:05:34;12.43;;;10.68;;
6475;SDS011;3271;51.910;5.840;2022-10-15T01:08:00;12.40;;;11.20;;
6475;SDS011;3271;51.910;5.840;2022-10-15T01:10:27;12.70;;;10.85;;
6475;SDS011;3271;51.910;5.840;2022-10-15T01:13:07;13.63;;;10.98;;
6475;SDS011;3271;51.910;5.840;2022-10-15T01:18:02;12.50;;;11.15;;
6475;SDS011;3271;51.910;5.840;2022-10-15T01:20:43;12.27;;;10.52;;
6475;SDS011;3271;51.910;5.840;2022-10-15T01:26:09;17.38;;;13.55;;
6475;SDS011;3271;51.910;5.840;2022-10-15T01:31:30;15.48;;;13.48;;
6475;SDS011;3271;51.910;5.840;2022-10-15T01:36:55;15.50;;;13.88;;
6475;SDS011;3271;51.910;5.840;2022-10-15T01:39:27;16.70;;;14.63;;
6475;SDS011;3271;51.910;5.840;2022-10-15T01:41:56;16.10;;;13.43;;
6475;SDS011;3271;51.910;5.840;2022-10-15T01:44:39;16.05;;;13.77;;
6475;SDS011;3271;51.910;5.840;2022-10-15T01:47:10;16.42;;;13.70;;
6475;SDS011;3271;51.910;5.840;2022-10-15T01:49:40;17.38;;;14.50;;
6475;SDS011;3271;51.910;5.840;2022-10-15T01:52:14;17.98;;;14.32;;
6475;SDS011;3271;51.910;5.840;2022-10-15T01:54:41;15.98;;;13.43;;
6475;SDS011;3271;51.910;5.840;2022-10-15T01:57:08;22.60;;;15.25;;
6475;SDS011;3271;51.910;5.840;2022-10-15T01:59:35;13.98;;;12.43;;
6475;SDS011;3271;51.910;5.840;2022-10-15T02:02:01;18.00;;;15.63;;
6475;SDS011;3271;51.910;5.840;2022-10-15T02:04:28;18.27;;;14.45;;
6475;SDS011;3271;51.910;5.840;2022-10-15T02:11:59;19.05;;;15.55;;
6475;SDS011;3271;51.910;5.840;2022-10-15T02:14:53;19.92;;;16.13;;
6475;SDS011;3271;51.910;5.840;2022-10-15T02:17:19;20.73;;;16.40;;
6475;SDS011;3271;51.910;5.840;2022-10-15T02:22:13;19.23;;;16.23;;
6475;SDS011;3271;51.910;5.840;2022-10-15T02:24:43;18.73;;;16.45;;
6475;SDS011;3271;51.910;5.840;2022-10-15T02:27:10;19.10;;;16.27;;
6475;SDS011;3271;51.910;5.840;2022-10-15T02:29:37;23.38;;;16.70;;
6475;SDS011;3271;51.910;5.840;2022-10-15T02:32:05;20.40;;;16.67;;
6475;SDS011;3271;51.910;5.840;2022-10-15T02:34:32;19.98;;;16.05;;
6475;SDS011;3271;51.910;5.840;2022-10-15T02:37:01;21.13;;;16.75;;
6475;SDS011;3271;51.910;5.840;2022-10-15T02:39:27;19.55;;;16.05;;
6475;SDS011;3271;51.910;5.840;2022-10-15T02:41:53;21.48;;;16.77;;
6475;SDS011;3271;51.910;5.840;2022-10-15T02:44:20;18.02;;;15.00;;
6475;SDS011;3271;51.910;5.840;2022-10-15T02:46:46;20.08;;;16.00;;
6475;SDS011;3271;51.910;5.840;2022-10-15T02:49:12;17.83;;;14.98;;
6475;SDS011;3271;51.910;5.840;2022-10-15T02:51:37;18.73;;;15.95;;
6475;SDS011;3271;51.910;5.840;2022-10-15T02:54:04;20.10;;;16.27;;
6475;SDS011;3271;51.910;5.840;2022-10-15T02:56:31;16.80;;;14.73;;
6475;SDS011;3271;51.910;5.840;2022-10-15T02:58:57;17.80;;;15.73;;
6475;SDS011;3271;51.910;5.840;2022-10-15T03:01:23;18.95;;;16.20;;
6475;SDS011;3271;51.910;5.840;2022-10-15T03:03:49;18.23;;;15.23;;
6475;SDS011;3271;51.910;5.840;2022-10-15T03:06:15;19.65;;;15.77;;
6475;SDS011;3271;51.910;5.840;2022-10-15T03:08:41;18.33;;;14.20;;
6475;SDS011;3271;51.910;5.840;2022-10-15T03:11:08;21.60;;;15.57;;
6475;SDS011;3271;51.910;5.840;2022-10-15T03:13:34;17.38;;;15.10;;
6475;SDS011;3271;51.910;5.840;2022-10-15T03:16:02;19.33;;;15.38;;
6475;SDS011;3271;51.910;5.840;2022-10-15T03:18:28;17.13;;;15.07;;
6475;SDS011;3271;51.910;5.840;2022-10-15T03:20:54;16.02;;;14.38;;
6475;SDS011;3271;51.910;5.840;2022-10-15T03:23:21;18.88;;;15.95;;
6475;SDS011;3271;51.910;5.840;2022-10-15T03:25:47;18.85;;;14.90;;
6475;SDS011;3271;51.910;5.840;2022-10-15T03:28:13;17.40;;;15.60;;
6475;SDS011;3271;51.910;5.840;2022-10-15T03:30:39;19.13;;;14.23;;
6475;SDS011;3271;51.910;5.840;2022-10-15T03:33:05;19.70;;;15.63;;
6475;SDS011;3271;51.910;5.840;2022-10-15T03:35:30;15.90;;;14.05;;
6475;SDS011;3271;51.910;5.840;2022-10-15T03:37:56;15.45;;;13.80;;
6475;SDS011;3271;51.910;5.840;2022-10-15T03:40:22;16.52;;;14.68;;
6475;SDS011;3271;51.910;5.840;2022-10-15T03:42:49;17.90;;;15.73;;
6475;SDS011;3271;51.910;5.840;2022-10-15T03:45:15;16.45;;;14.63;;
6475;SDS011;3271;51.910;5.840;2022-10-15T03:47:41;18.67;;;14.77;;
6475;SDS011;3271;51.910;5.840;2022-10-15T03:50:08;15.73;;;14.02;;
6475;SDS011;3271;51.910;5.840;2022-10-15T03:52:35;17.67;;;15.55;;
6475;SDS011;3271;51.910;5.840;2022-10-15T03:55:01;16.10;;;14.43;;
6475;SDS011;3271;51.910;5.840;2022-10-15T03:57:28;16.00;;;14.00;;
6475;SDS011;3271;51.910;5.840;2022-10-15T03:59:53;15.13;;;13.52;;
6475;SDS011;3271;51.910;5.840;2022-10-15T04:02:19;15.75;;;14.18;;
6475;SDS011;3271;51.910;5.840;2022-10-15T04:04:45;17.67;;;15.85;;
6475;SDS011;3271;51.910;5.840;2022-10-15T04:07:11;16.80;;;13.05;;
6475;SDS011;3271;51.910;5.840;2022-10-15T04:09:37;16.08;;;14.38;;
6475;SDS011;3271;51.910;5.840;2022-10-15T04:12:03;16.63;;;14.57;;
6475;SDS011;3271;51.910;5.840;2022-10-15T04:14:29;15.20;;;13.55;;
6475;SDS011;3271;51.910;5.840;2022-10-15T04:16:55;16.55;;;14.63;;
6475;SDS011;3271;51.910;5.840;2022-10-15T04:19:23;15.88;;;14.07;;
6475;SDS011;3271;51.910;5.840;2022-10-15T04:21:49;16.10;;;14.38;;
6475;SDS011;3271;51.910;5.840;2022-10-15T04:24:15;15.40;;;13.80;;
6475;SDS011;3271;51.910;5.840;2022-10-15T04:26:41;16.08;;;13.95;;
6475;SDS011;3271;51.910;5.840;2022-10-15T04:29:07;17.85;;;14.55;;
6475;SDS011;3271;51.910;5.840;2022-10-15T04:31:33;15.57;;;13.98;;
6475;SDS011;3271;51.910;5.840;2022-10-15T04:33:59;17.10;;;14.25;;
6475;SDS011;3271;51.910;5.840;2022-10-15T04:36:25;17.38;;;13.90;;
6475;SDS011;3271;51.910;5.840;2022-10-15T04:38:51;16.95;;;15.13;;
6475;SDS011;3271;51.910;5.840;2022-10-15T04:41:17;17.13;;;14.88;;
6475;SDS011;3271;51.910;5.840;2022-10-15T04:43:43;14.73;;;12.68;;
6475;SDS011;3271;51.910;5.840;2022-10-15T04:46:09;16.45;;;14.55;;
6475;SDS011;3271;51.910;5.840;2022-10-15T04:48:35;17.13;;;15.40;;
6475;SDS011;3271;51.910;5.840;2022-10-15T04:51:08;16.35;;;13.52;;
6475;SDS011;3271;51.910;5.840;2022-10-15T04:53:35;16.17;;;14.48;;
6475;SDS011;3271;51.910;5.840;2022-10-15T04:56:04;15.18;;;13.60;;
6475;SDS011;3271;51.910;5.840;2022-10-15T04:58:31;15.68;;;13.98;;
6475;SDS011;3271;51.910;5.840;2022-10-15T05:00:58;17.83;;;14.32;;
6475;SDS011;3271;51.910;5.840;2022-10-15T05:03:24;14.82;;;13.20;;
6475;SDS011;3271;51.910;5.840;2022-10-15T05:05:50;15.25;;;13.73;;
6475;SDS011;3271;51.910;5.840;2022-10-15T05:08:16;14.27;;;12.77;;
6475;SDS011;3271;51.910;5.840;2022-10-15T05:10:42;17.02;;;15.23;;
6475;SDS011;3271;51.910;5.840;2022-10-15T05:13:08;18.08;;;15.30;;
6475;SDS011;3271;51.910;5.840;2022-10-15T05:15:34;16.35;;;14.48;;
6475;SDS011;3271;51.910;5.840;2022-10-15T05:18:00;14.43;;;13.02;;
6475;SDS011;3271;51.910;5.840;2022-10-15T05:20:26;16.75;;;14.98;;
6475;SDS011;3271;51.910;5.840;2022-10-15T05:22:52;17.52;;;15.00;;
6475;SDS011;3271;51.910;5.840;2022-10-15T05:25:17;14.27;;;12.80;;
6475;SDS011;3271;51.910;5.840;2022-10-15T05:27:43;14.80;;;13.25;;
6475;SDS011;3271;51.910;5.840;2022-10-15T05:30:09;19.17;;;14.23;;
6475;SDS011;3271;51.910;5.840;2022-10-15T05:32:35;16.38;;;14.63;;
6475;SDS011;3271;51.910;5.840;2022-10-15T05:35:01;15.48;;;13.85;;
6475;SDS011;3271;51.910;5.840;2022-10-15T05:37:27;15.07;;;13.48;;
6475;SDS011;3271;51.910;5.840;2022-10-15T05:39:53;15.82;;;14.07;;
6475;SDS011;3271;51.910;5.840;2022-10-15T05:42:19;15.00;;;13.57;;
6475;SDS011;3271;51.910;5.840;2022-10-15T05:44:45;16.85;;;14.27;;
6475;SDS011;3271;51.910;5.840;2022-10-15T05:47:11;16.02;;;13.85;;
6475;SDS011;3271;51.910;5.840;2022-10-15T05:49:37;15.77;;;14.02;;
6475;SDS011;3271;51.910;5.840;2022-10-15T05:52:03;18.00;;;14.98;;
6475;SDS011;3271;51.910;5.840;2022-10-15T05:54:29;18.70;;;14.30;;
6475;SDS011;3271;51.910;5.840;2022-10-15T05:56:55;17.63;;;14.38;;
6475;SDS011;3271;51.910;5.840;2022-10-15T05:59:21;19.58;;;16.20;;
6475;SDS011;3271;51.910;5.840;2022-10-15T06:01:46;20.13;;;15.93;;
6475;SDS011;3271;51.910;5.840;2022-10-15T06:04:13;18.23;;;15.98;;
6475;SDS011;3271;51.910;5.840;2022-10-15T06:06:39;20.30;;;15.40;;
6475;SDS011;3271;51.910;5.840;2022-10-15T06:09:05;19.67;;;16.92;;
6475;SDS011;3271;51.910;5.840;2022-10-15T06:11:31;18.65;;;15.65;;
6475;SDS011;3271;51.910;5.840;2022-10-15T06:13:57;19.67;;;15.75;;
6475;SDS011;3271;51.910;5.840;2022-10-15T06:16:23;17.23;;;14.40;;
6475;SDS011;3271;51.910;5.840;2022-10-15T06:18:50;18.02;;;15.35;;
6475;SDS011;3271;51.910;5.840;2022-10-15T06:21:16;18.02;;;14.75;;
6475;SDS011;3271;51.910;5.840;2022-10-15T06:23:42;17.92;;;15.25;;
6475;SDS011;3271;51.910;5.840;2022-10-15T06:26:09;17.30;;;13.77;;
6475;SDS011;3271;51.910;5.840;2022-10-15T06:28:35;15.05;;;13.45;;
6475;SDS011;3271;51.910;5.840;2022-10-15T06:31:01;15.90;;;13.20;;
6475;SDS011;3271;51.910;5.840;2022-10-15T06:33:27;15.82;;;14.02;;
6475;SDS011;3271;51.910;5.840;2022-10-15T06:35:54;16.73;;;14.60;;
6475;SDS011;3271;51.910;5.840;2022-10-15T06:38:20;14.93;;;13.02;;
6475;SDS011;3271;51.910;5.840;2022-10-15T06:40:46;19.55;;;14.13;;
6475;SDS011;3271;51.910;5.840;2022-10-15T06:43:13;14.38;;;12.88;;
6475;SDS011;3271;51.910;5.840;2022-10-15T06:45:39;16.05;;;14.35;;
6475;SDS011;3271;51.910;5.840;2022-10-15T06:48:06;16.05;;;13.73;;
6475;SDS011;3271;51.910;5.840;2022-10-15T06:50:33;14.70;;;13.10;;
6475;SDS011;3271;51.910;5.840;2022-10-15T06:53:00;14.98;;;12.77;;
6475;SDS011;3271;51.910;5.840;2022-10-15T06:55:26;14.75;;;12.90;;
6475;SDS011;3271;51.910;5.840;2022-10-15T06:57:55;14.85;;;13.20;;
6475;SDS011;3271;51.910;5.840;2022-10-15T07:00:22;15.95;;;13.07;;
6475;SDS011;3271;51.910;5.840;2022-10-15T07:02:48;13.23;;;11.68;;
6475;SDS011;3271;51.910;5.840;2022-10-15T07:05:14;14.85;;;12.45;;
6475;SDS011;3271;51.910;5.840;2022-10-15T07:07:40;13.85;;;12.35;;
6475;SDS011;3271;51.910;5.840;2022-10-15T07:10:06;15.50;;;11.90;;
6475;SDS011;3271;51.910;5.840;2022-10-15T07:12:32;13.15;;;10.90;;
6475;SDS011;3271;51.910;5.840;2022-10-15T07:14:58;16.73;;;12.90;;
6475;SDS011;3271;51.910;5.840;2022-10-15T07:17:24;13.85;;;12.40;;
6475;SDS011;3271;51.910;5.840;2022-10-15T07:19:50;13.68;;;11.13;;
6475;SDS011;3271;51.910;5.840;2022-10-15T07:22:16;14.35;;;12.20;;
6475;SDS011;3271;51.910;5.840;2022-10-15T07:24:42;17.75;;;13.15;;
6475;SDS011;3271;51.910;5.840;2022-10-15T07:27:08;13.68;;;11.00;;
6475;SDS011;3271;51.910;5.840;2022-10-15T07:29:34;13.73;;;12.02;;
6475;SDS011;3271;51.910;5.840;2022-10-15T07:32:00;17.17;;;13.63;;
6475;SDS011;3271;51.910;5.840;2022-10-15T07:34:26;17.92;;;14.40;;
6475;SDS011;3271;51.910;5.840;2022-10-15T07:36:52;15.43;;;13.43;;
6475;SDS011;3271;51.910;5.840;2022-10-15T07:39:17;19.65;;;15.10;;
6475;SDS011;3271;51.910;5.840;2022-10-15T07:41:44;17.20;;;15.15;;
6475;SDS011;3271;51.910;5.840;2022-10-15T07:44:10;16.48;;;14.32;;
6475;SDS011;3271;51.910;5.840;2022-10-15T07:46:36;16.30;;;14.48;;
6475;SDS011;3271;51.910;5.840;2022-10-15T07:49:02;18.08;;;13.73;;
6475;SDS011;3271;51.910;5.840;2022-10-15T07:51:28;20.25;;;14.38;;
6475;SDS011;3271;51.910;5.840;2022-10-15T07:54:00;18.45;;;13.95;;
6475;SDS011;3271;51.910;5.840;2022-10-15T07:56:26;12.82;;;11.32;;
6475;SDS011;3271;51.910;5.840;2022-10-15T07:58:52;13.15;;;11.35;;
6475;SDS011;3271;51.910;5.840;2022-10-15T08:01:19;14.43;;;12.93;;
6475;SDS011;3271;51.910;5.840;2022-10-15T08:03:45;15.00;;;12.88;;
6475;SDS011;3271;51.910;5.840;2022-10-15T08:06:12;16.83;;;13.20;;
6475;SDS011;3271;51.910;5.840;2022-10-15T08:08:37;15.80;;;12.75;;
6475;SDS011;3271;51.910;5.840;2022-10-15T08:11:14;13.68;;;11.88;;
6475;SDS011;3271;51.910;5.840;2022-10-15T08:13:41;14.68;;;13.07;;
6475;SDS011;3271;51.910;5.840;2022-10-15T08:16:14;12.65;;;11.13;;
6475;SDS011;3271;51.910;5.840;2022-10-15T08:18:44;13.70;;;11.88;;
6475;SDS011;3271;51.910;5.840;2022-10-15T08:21:10;12.48;;;10.93;;
6475;SDS011;3271;51.910;5.840;2022-10-15T08:23:36;14.55;;;11.15;;
6475;SDS011;3271;51.910;5.840;2022-10-15T08:28:35;14.25;;;11.60;;
6475;SDS011;3271;51.910;5.840;2022-10-15T08:31:02;14.25;;;12.52;;
6475;SDS011;3271;51.910;5.840;2022-10-15T08:33:28;13.00;;;11.63;;
6475;SDS011;3271;51.910;5.840;2022-10-15T08:35:54;15.35;;;12.23;;
6475;SDS011;3271;51.910;5.840;2022-10-15T08:43:51;12.52;;;11.00;;
6475;SDS011;3271;51.910;5.840;2022-10-15T08:46:19;14.35;;;12.15;;
6475;SDS011;3271;51.910;5.840;2022-10-15T08:48:47;16.42;;;10.57;;
6475;SDS011;3271;51.910;5.840;2022-10-15T08:51:19;12.95;;;11.00;;
6475;SDS011;3271;51.910;5.840;2022-10-15T08:53:49;12.10;;;10.75;;
6475;SDS011;3271;51.910;5.840;2022-10-15T08:56:18;13.80;;;11.63;;
6475;SDS011;3271;51.910;5.840;2022-10-15T09:04:06;12.77;;;11.20;;
6475;SDS011;3271;51.910;5.840;2022-10-15T09:06:36;12.88;;;10.68;;
6475;SDS011;3271;51.910;5.840;2022-10-15T09:09:07;12.93;;;11.02;;
6475;SDS011;3271;51.910;5.840;2022-10-15T09:14:22;11.88;;;10.57;;
6475;SDS011;3271;51.910;5.840;2022-10-15T09:16:50;11.35;;;10.13;;
6475;SDS011;3271;51.910;5.840;2022-10-15T09:19:22;11.25;;;9.18;;
6475;SDS011;3271;51.910;5.840;2022-10-15T09:21:50;13.18;;;9.27;;
6475;SDS011;3271;51.910;5.840;2022-10-15T09:24:24;12.25;;;9.82;;
6475;SDS011;3271;51.910;5.840;2022-10-15T09:26:52;11.57;;;9.50;;
6475;SDS011;3271;51.910;5.840;2022-10-15T09:31:50;10.25;;;8.18;;
6475;SDS011;3271;51.910;5.840;2022-10-15T09:34:19;11.18;;;8.75;;
6475;SDS011;3271;51.910;5.840;2022-10-15T09:36:49;8.82;;;7.93;;
6475;SDS011;3271;51.910;5.840;2022-10-15T09:41:47;9.18;;;7.78;;
6475;SDS011;3271;51.910;5.840;2022-10-15T09:44:17;8.75;;;7.60;;
6475;SDS011;3271;51.910;5.840;2022-10-15T09:46:47;9.10;;;7.13;;
6475;SDS011;3271;51.910;5.840;2022-10-15T09:49:14;9.70;;;8.18;;
6475;SDS011;3271;51.910;5.840;2022-10-15T09:52:05;11.32;;;7.50;;
6475;SDS011;3271;51.910;5.840;2022-10-15T09:57:10;9.60;;;7.07;;
6475;SDS011;3271;51.910;5.840;2022-10-15T09:59:37;8.15;;;7.35;;
6475;SDS011;3271;51.910;5.840;2022-10-15T10:02:19;10.60;;;7.03;;
6475;SDS011;3271;51.910;5.840;2022-10-15T10:04:45;9.35;;;7.20;;
6475;SDS011;3271;51.910;5.840;2022-10-15T10:07:26;8.80;;;7.55;;
6475;SDS011;3271;51.910;5.840;2022-10-15T10:09:54;9.38;;;7.07;;
6475;SDS011;3271;51.910;5.840;2022-10-15T10:12:21;7.72;;;6.78;;
6475;SDS011;3271;51.910;5.840;2022-10-15T10:14:57;8.93;;;7.95;;
6475;SDS011;3271;51.910;5.840;2022-10-15T10:17:24;8.50;;;7.60;;
6475;SDS011;3271;51.910;5.840;2022-10-15T10:22:42;8.43;;;7.03;;
6475;SDS011;3271;51.910;5.840;2022-10-15T10:27:57;7.07;;;6.38;;
6475;SDS011;3271;51.910;5.840;2022-10-15T10:30:23;18.40;;;14.90;;
6475;SDS011;3271;51.910;5.840;2022-10-15T10:32:56;10.93;;;8.60;;
6475;SDS011;3271;51.910;5.840;2022-10-15T10:35:24;27.33;;;21.55;;
6475;SDS011;3271;51.910;5.840;2022-10-15T10:37:50;10.00;;;8.43;;
6475;SDS011;3271;51.910;5.840;2022-10-15T10:40:21;8.52;;;6.78;;
6475;SDS011;3271;51.910;5.840;2022-10-15T10:42:49;9.45;;;7.75;;
6475;SDS011;3271;51.910;5.840;2022-10-15T10:45:33;7.82;;;7.00;;
6475;SDS011;3271;51.910;5.840;2022-10-15T10:48:14;8.93;;;7.80;;
6475;SDS011;3271;51.910;5.840;2022-10-15T10:50:42;8.73;;;6.93;;
6475;SDS011;3271;51.910;5.840;2022-10-15T10:53:15;8.75;;;7.38;;
6475;SDS011;3271;51.910;5.840;2022-10-15T10:55:42;9.68;;;7.07;;
6475;SDS011;3271;51.910;5.840;2022-10-15T10:58:11;8.77;;;7.55;;
6475;SDS011;3271;51.910;5.840;2022-10-15T11:00:44;9.65;;;7.68;;
6475;SDS011;3271;51.910;5.840;2022-10-15T11:05:53;7.35;;;6.55;;
6475;SDS011;3271;51.910;5.840;2022-10-15T11:08:27;8.13;;;6.40;;
6475;SDS011;3271;51.910;5.840;2022-10-15T11:13:39;6.78;;;5.47;;
6475;SDS011;3271;51.910;5.840;2022-10-15T11:16:14;5.90;;;5.30;;
6475;SDS011;3271;51.910;5.840;2022-10-15T11:18:47;6.15;;;5.25;;
6475;SDS011;3271;51.910;5.840;2022-10-15T11:26:25;5.72;;;4.85;;
6475;SDS011;3271;51.910;5.840;2022-10-15T11:34:14;6.15;;;4.32;;
6475;SDS011;3271;51.910;5.840;2022-10-15T11:36:49;5.85;;;4.55;;
6475;SDS011;3271;51.910;5.840;2022-10-15T11:39:41;4.05;;;3.65;;
6475;SDS011;3271;51.910;5.840;2022-10-15T11:42:12;4.53;;;4.05;;
6475;SDS011;3271;51.910;5.840;2022-10-15T11:50:01;5.43;;;3.80;;
6475;SDS011;3271;51.910;5.840;2022-10-15T11:52:36;4.47;;;3.60;;
6475;SDS011;3271;51.910;5.840;2022-10-15T11:57:33;5.03;;;3.22;;
6475;SDS011;3271;51.910;5.840;2022-10-15T12:00:03;3.80;;;3.03;;
6475;SDS011;3271;51.910;5.840;2022-10-15T12:02:39;3.28;;;2.97;;
6475;SDS011;3271;51.910;5.840;2022-10-15T12:05:18;3.42;;;2.65;;
6475;SDS011;3271;51.910;5.840;2022-10-15T12:07:46;3.75;;;3.15;;
6475;SDS011;3271;51.910;5.840;2022-10-15T12:12:40;3.35;;;3.00;;
6475;SDS011;3271;51.910;5.840;2022-10-15T12:17:56;4.90;;;3.47;;
6475;SDS011;3271;51.910;5.840;2022-10-15T12:20:23;3.42;;;2.95;;
6475;SDS011;3271;51.910;5.840;2022-10-15T12:25:38;3.95;;;3.30;;
6475;SDS011;3271;51.910;5.840;2022-10-15T12:30:40;4.22;;;2.97;;
6475;SDS011;3271;51.910;5.840;2022-10-15T12:33:31;3.65;;;2.95;;
6475;SDS011;3271;51.910;5.840;2022-10-15T12:36:01;4.60;;;3.15;;
6475;SDS011;3271;51.910;5.840;2022-10-15T12:38:33;3.65;;;2.70;;
6475;SDS011;3271;51.910;5.840;2022-10-15T12:41:04;3.88;;;2.80;;
6475;SDS011;3271;51.910;5.840;2022-10-15T12:43:31;4.95;;;2.65;;
6475;SDS011;3271;51.910;5.840;2022-10-15T12:45:59;3.25;;;2.95;;
6475;SDS011;3271;51.910;5.840;2022-10-15T12:48:35;3.50;;;2.90;;
6475;SDS011;3271;51.910;5.840;2022-10-15T12:53:46;3.40;;;3.13;;
6475;SDS011;3271;51.910;5.840;2022-10-15T12:56:20;3.08;;;2.88;;
6475;SDS011;3271;51.910;5.840;2022-10-15T12:58:48;2.95;;;2.75;;
6475;SDS011;3271;51.910;5.840;2022-10-15T13:11:18;3.20;;;3.00;;
6475;SDS011;3271;51.910;5.840;2022-10-15T13:13:45;3.55;;;3.25;;
6475;SDS011;3271;51.910;5.840;2022-10-15T13:16:11;3.15;;;2.85;;
6475;SDS011;3271;51.910;5.840;2022-10-15T13:18:38;3.33;;;2.72;;
6475;SDS011;3271;51.910;5.840;2022-10-15T13:21:05;2.97;;;2.72;;
6475;SDS011;3271;51.910;5.840;2022-10-15T13:23:32;4.35;;;3.45;;
6475;SDS011;3271;51.910;5.840;2022-10-15T13:26:11;3.45;;;3.05;;
6475;SDS011;3271;51.910;5.840;2022-10-15T13:28:38;3.20;;;3.00;;
6475;SDS011;3271;51.910;5.840;2022-10-15T13:31:06;3.35;;;3.05;;
6475;SDS011;3271;51.910;5.840;2022-10-15T13:33:37;3.45;;;3.15;;
6475;SDS011;3271;51.910;5.840;2022-10-15T13:36:07;3.17;;;2.97;;
6475;SDS011;3271;51.910;5.840;2022-10-15T13:38:34;3.08;;;2.88;;
6475;SDS011;3271;51.910;5.840;2022-10-15T13:41:01;3.30;;;3.00;;
6475;SDS011;3271;51.910;5.840;2022-10-15T13:43:28;4.47;;;4.07;;
6475;SDS011;3271;51.910;5.840;2022-10-15T13:45:55;3.80;;;3.50;;
6475;SDS011;3271;51.910;5.840;2022-10-15T13:48:22;3.50;;;3.20;;
6475;SDS011;3271;51.910;5.840;2022-10-15T13:50:49;3.47;;;3.17;;
6475;SDS011;3271;51.910;5.840;2022-10-15T13:55:43;3.60;;;3.40;;
6475;SDS011;3271;51.910;5.840;2022-10-15T13:58:16;3.90;;;3.60;;
6475;SDS011;3271;51.910;5.840;2022-10-15T14:00:47;3.95;;;3.60;;
6475;SDS011;3271;51.910;5.840;2022-10-15T14:03:15;4.25;;;3.95;;
6475;SDS011;3271;51.910;5.840;2022-10-15T14:05:42;4.28;;;3.97;;
6475;SDS011;3271;51.910;5.840;2022-10-15T14:08:13;5.85;;;3.92;;
6475;SDS011;3271;51.910;5.840;2022-10-15T14:10:39;10.38;;;4.78;;
6475;SDS011;3271;51.910;5.840;2022-10-15T14:13:07;6.00;;;4.55;;
6475;SDS011;3271;51.910;5.840;2022-10-15T14:18:35;3.75;;;3.42;;
6475;SDS011;3271;51.910;5.840;2022-10-15T14:21:02;3.53;;;3.22;;
6475;SDS011;3271;51.910;5.840;2022-10-15T14:23:28;3.97;;;3.67;;
6475;SDS011;3271;51.910;5.840;2022-10-15T14:25:55;2.85;;;2.65;;
6475;SDS011;3271;51.910;5.840;2022-10-15T14:28:21;2.47;;;2.28;;
6475;SDS011;3271;51.910;5.840;2022-10-15T14:30:48;2.70;;;2.50;;
6475;SDS011;3271;51.910;5.840;2022-10-15T14:36:10;2.25;;;2.13;;
6475;SDS011;3271;51.910;5.840;2022-10-15T14:38:36;2.40;;;2.20;;
6475;SDS011;3271;51.910;5.840;2022-10-15T14:41:17;3.22;;;2.30;;
6475;SDS011;3271;51.910;5.840;2022-10-15T14:43:45;2.78;;;2.15;;
6475;SDS011;3271;51.910;5.840;2022-10-15T14:46:24;2.20;;;2.10;;
6475;SDS011;3271;51.910;5.840;2022-10-15T14:48:50;2.58;;;2.05;;
6475;SDS011;3271;51.910;5.840;2022-10-15T14:51:21;3.38;;;2.10;;
6475;SDS011;3271;51.910;5.840;2022-10-15T14:53:49;2.10;;;1.90;;
6475;SDS011;3271;51.910;5.840;2022-10-15T14:56:18;2.08;;;1.90;;
6475;SDS011;3271;51.910;5.840;2022-10-15T14:58:48;1.92;;;1.83;;
6475;SDS011;3271;51.910;5.840;2022-10-15T15:01:16;2.42;;;1.70;;
6475;SDS011;3271;51.910;5.840;2022-10-15T15:03:46;2.45;;;1.80;;
6475;SDS011;3271;51.910;5.840;2022-10-15T15:06:12;1.95;;;1.67;;
6475;SDS011;3271;51.910;5.840;2022-10-15T15:08:38;2.30;;;1.70;;
6475;SDS011;3271;51.910;5.840;2022-10-15T15:11:05;1.70;;;1.60;;
6475;SDS011;3271;51.910;5.840;2022-10-15T15:13:36;2.35;;;1.50;;
6475;SDS011;3271;51.910;5.840;2022-10-15T15:16:02;1.40;;;1.30;;
6475;SDS011;3271;51.910;5.840;2022-10-15T15:18:28;3.25;;;1.50;;
6475;SDS011;3271;51.910;5.840;2022-10-15T15:20:55;2.35;;;2.15;;
6475;SDS011;3271;51.910;5.840;2022-10-15T15:23:23;1.55;;;1.45;;
6475;SDS011;3271;51.910;5.840;2022-10-15T15:25:50;2.47;;;2.08;;
6475;SDS011;3271;51.910;5.840;2022-10-15T15:28:20;1.67;;;1.55;;
6475;SDS011;3271;51.910;5.840;2022-10-15T15:30:59;4.63;;;1.40;;
6475;SDS011;3271;51.910;5.840;2022-10-15T15:33:26;1.52;;;1.42;;
6475;SDS011;3271;51.910;5.840;2022-10-15T15:35:54;1.20;;;1.10;;
6475;SDS011;3271;51.910;5.840;2022-10-15T15:38:21;1.40;;;1.30;;
6475;SDS011;3271;51.910;5.840;2022-10-15T15:40:48;1.30;;;1.20;;
6475;SDS011;3271;51.910;5.840;2022-10-15T15:43:15;1.30;;;1.17;;
6475;SDS011;3271;51.910;5.840;2022-10-15T15:45:41;3.55;;;1.50;;
6475;SDS011;3271;51.910;5.840;2022-10-15T15:48:07;1.48;;;1.27;;
6475;SDS011;3271;51.910;5.840;2022-10-15T15:50:34;1.25;;;1.10;;
6475;SDS011;3271;51.910;5.840;2022-10-15T15:53:00;2.75;;;1.20;;
6475;SDS011;3271;51.910;5.840;2022-10-15T15:55:26;1.60;;;0.95;;
6475;SDS011;3271;51.910;5.840;2022-10-15T15:57:52;1.17;;;1.08;;
6475;SDS011;3271;51.910;5.840;2022-10-15T16:00:17;1.52;;;0.95;;
6475;SDS011;3271;51.910;5.840;2022-10-15T16:02:44;2.17;;;1.10;;
6475;SDS011;3271;51.910;5.840;2022-10-15T16:05:11;1.33;;;0.95;;
6475;SDS011;3271;51.910;5.840;2022-10-15T16:07:37;2.20;;;1.00;;
6475;SDS011;3271;51.910;5.840;2022-10-15T16:10:04;1.50;;;1.40;;
6475;SDS011;3271;51.910;5.840;2022-10-15T16:12:32;2.25;;;1.10;;
6475;SDS011;3271;51.910;5.840;2022-10-15T16:14:58;3.78;;;1.40;;
6475;SDS011;3271;51.910;5.840;2022-10-15T16:17:25;2.20;;;0.90;;
6475;SDS011;3271;51.910;5.840;2022-10-15T16:19:51;1.25;;;1.13;;
6475;SDS011;3271;51.910;5.840;2022-10-15T16:22:17;2.15;;;1.20;;
6475;SDS011;3271;51.910;5.840;2022-10-15T16:24:42;1.15;;;1.02;;
6475;SDS011;3271;51.910;5.840;2022-10-15T16:27:08;2.35;;;1.20;;
6475;SDS011;3271;51.910;5.840;2022-10-15T16:29:34;3.38;;;1.02;;
6475;SDS011;3271;51.910;5.840;2022-10-15T16:32:00;1.75;;;1.20;;
6475;SDS011;3271;51.910;5.840;2022-10-15T16:34:26;2.38;;;0.90;;
6475;SDS011;3271;51.910;5.840;2022-10-15T16:36:52;16.60;;;12.68;;
6475;SDS011;3271;51.910;5.840;2022-10-15T16:39:18;2.63;;;2.00;;
6475;SDS011;3271;51.910;5.840;2022-10-15T16:41:44;2.35;;;1.38;;
6475;SDS011;3271;51.910;5.840;2022-10-15T16:44:10;3.03;;;1.23;;
6475;SDS011;3271;51.910;5.840;2022-10-15T16:46:36;3.33;;;1.05;;